<?xml version="1.0" encoding="UTF-8" standalone="no" ?>
<gpx xmlns="http://www.topografix.com/GPX/1/1" xmlns:xsi="http://www.w3.org/2001/XMLSchema-instance" xsi:schemaLocation="http://www.topografix.com/GPX/1/1 http://www.topografix.com/GPX/1/1/gpx.xsd" version="1.1" creator="VisuGPX - https://www.visugpx.com">
  <metadata>
    <name>TPSB 2020</name>
  </metadata>
  <trk>
    <name><![CDATA[TPSB 2020_6]]></name>
    <trkseg>
      <trkpt lat="44.72077" lon="5.44287">
        <ele>682.19</ele>
        <time>2017-05-28T12:44:51Z</time>
      </trkpt>
      <trkpt lat="44.72069" lon="5.44288">
        <ele>684.6</ele>
        <time>2017-05-28T12:45:06Z</time>
      </trkpt>
      <trkpt lat="44.72066" lon="5.44287">
        <ele>684.6</ele>
        <time>2017-05-28T12:45:23Z</time>
      </trkpt>
      <trkpt lat="44.72064" lon="5.44287">
        <ele>684.6</ele>
        <time>2017-05-28T12:45:38Z</time>
      </trkpt>
      <trkpt lat="44.72061" lon="5.44282">
        <ele>684.6</ele>
        <time>2017-05-28T12:45:51Z</time>
      </trkpt>
      <trkpt lat="44.72062" lon="5.44269">
        <ele>684.12</ele>
        <time>2017-05-28T12:46:04Z</time>
      </trkpt>
      <trkpt lat="44.72062" lon="5.44266">
        <ele>683.15</ele>
        <time>2017-05-28T12:46:15Z</time>
      </trkpt>
      <trkpt lat="44.72062" lon="5.44263">
        <ele>683.15</ele>
        <time>2017-05-28T12:46:17Z</time>
      </trkpt>
      <trkpt lat="44.72063" lon="5.44259">
        <ele>682.67</ele>
        <time>2017-05-28T12:46:20Z</time>
      </trkpt>
      <trkpt lat="44.72064" lon="5.44254">
        <ele>682.67</ele>
        <time>2017-05-28T12:46:23Z</time>
      </trkpt>
      <trkpt lat="44.7206" lon="5.44239">
        <ele>682.19</ele>
        <time>2017-05-28T12:46:35Z</time>
      </trkpt>
      <trkpt lat="44.72058" lon="5.4423">
        <ele>683.63</ele>
        <time>2017-05-28T12:46:42Z</time>
      </trkpt>
      <trkpt lat="44.72058" lon="5.4421">
        <ele>684.12</ele>
        <time>2017-05-28T12:46:55Z</time>
      </trkpt>
      <trkpt lat="44.72058" lon="5.44196">
        <ele>685.56</ele>
        <time>2017-05-28T12:47:06Z</time>
      </trkpt>
      <trkpt lat="44.72052" lon="5.44185">
        <ele>687.96</ele>
        <time>2017-05-28T12:47:21Z</time>
      </trkpt>
      <trkpt lat="44.72048" lon="5.44172">
        <ele>689.88</ele>
        <time>2017-05-28T12:47:34Z</time>
      </trkpt>
      <trkpt lat="44.72048" lon="5.4417">
        <ele>689.88</ele>
        <time>2017-05-28T12:47:35Z</time>
      </trkpt>
      <trkpt lat="44.72041" lon="5.44156">
        <ele>689.4</ele>
        <time>2017-05-28T12:47:47Z</time>
      </trkpt>
      <trkpt lat="44.7204" lon="5.44151">
        <ele>687.96</ele>
        <time>2017-05-28T12:47:50Z</time>
      </trkpt>
      <trkpt lat="44.72039" lon="5.44147">
        <ele>687.48</ele>
        <time>2017-05-28T12:47:53Z</time>
      </trkpt>
      <trkpt lat="44.72033" lon="5.44115">
        <ele>685.08</ele>
        <time>2017-05-28T12:48:11Z</time>
      </trkpt>
      <trkpt lat="44.72022" lon="5.44083">
        <ele>682.67</ele>
        <time>2017-05-28T12:48:29Z</time>
      </trkpt>
      <trkpt lat="44.72018" lon="5.44079">
        <ele>681.23</ele>
        <time>2017-05-28T12:48:33Z</time>
      </trkpt>
      <trkpt lat="44.72009" lon="5.44077">
        <ele>680.27</ele>
        <time>2017-05-28T12:48:41Z</time>
      </trkpt>
      <trkpt lat="44.72007" lon="5.44077">
        <ele>679.31</ele>
        <time>2017-05-28T12:48:43Z</time>
      </trkpt>
      <trkpt lat="44.72005" lon="5.44076">
        <ele>678.83</ele>
        <time>2017-05-28T12:48:45Z</time>
      </trkpt>
      <trkpt lat="44.71995" lon="5.44067">
        <ele>676.42</ele>
        <time>2017-05-28T12:48:55Z</time>
      </trkpt>
      <trkpt lat="44.71987" lon="5.44057">
        <ele>674.98</ele>
        <time>2017-05-28T12:49:03Z</time>
      </trkpt>
      <trkpt lat="44.71983" lon="5.44052">
        <ele>673.54</ele>
        <time>2017-05-28T12:49:08Z</time>
      </trkpt>
      <trkpt lat="44.71978" lon="5.44038">
        <ele>670.66</ele>
        <time>2017-05-28T12:49:17Z</time>
      </trkpt>
      <trkpt lat="44.71975" lon="5.44023">
        <ele>667.77</ele>
        <time>2017-05-28T12:49:26Z</time>
      </trkpt>
      <trkpt lat="44.71973" lon="5.44016">
        <ele>666.81</ele>
        <time>2017-05-28T12:49:30Z</time>
      </trkpt>
      <trkpt lat="44.7197" lon="5.4401">
        <ele>665.37</ele>
        <time>2017-05-28T12:49:35Z</time>
      </trkpt>
      <trkpt lat="44.71954" lon="5.43988">
        <ele>662.49</ele>
        <time>2017-05-28T12:49:52Z</time>
      </trkpt>
      <trkpt lat="44.71939" lon="5.43971">
        <ele>660.56</ele>
        <time>2017-05-28T12:50:08Z</time>
      </trkpt>
      <trkpt lat="44.71935" lon="5.43968">
        <ele>660.08</ele>
        <time>2017-05-28T12:50:11Z</time>
      </trkpt>
      <trkpt lat="44.71934" lon="5.43965">
        <ele>659.6</ele>
        <time>2017-05-28T12:50:13Z</time>
      </trkpt>
      <trkpt lat="44.71927" lon="5.43953">
        <ele>658.16</ele>
        <time>2017-05-28T12:50:22Z</time>
      </trkpt>
      <trkpt lat="44.71922" lon="5.43943">
        <ele>657.2</ele>
        <time>2017-05-28T12:50:30Z</time>
      </trkpt>
      <trkpt lat="44.71915" lon="5.43917">
        <ele>654.31</ele>
        <time>2017-05-28T12:50:46Z</time>
      </trkpt>
      <trkpt lat="44.71906" lon="5.43897">
        <ele>652.87</ele>
        <time>2017-05-28T12:50:59Z</time>
      </trkpt>
      <trkpt lat="44.71902" lon="5.43891">
        <ele>652.87</ele>
        <time>2017-05-28T12:51:03Z</time>
      </trkpt>
      <trkpt lat="44.71897" lon="5.4388">
        <ele>650.95</ele>
        <time>2017-05-28T12:51:11Z</time>
      </trkpt>
      <trkpt lat="44.71888" lon="5.43864">
        <ele>649.51</ele>
        <time>2017-05-28T12:51:22Z</time>
      </trkpt>
      <trkpt lat="44.71878" lon="5.43847">
        <ele>645.66</ele>
        <time>2017-05-28T12:51:35Z</time>
      </trkpt>
      <trkpt lat="44.71875" lon="5.43828">
        <ele>643.26</ele>
        <time>2017-05-28T12:51:46Z</time>
      </trkpt>
      <trkpt lat="44.71876" lon="5.43808">
        <ele>640.38</ele>
        <time>2017-05-28T12:51:57Z</time>
      </trkpt>
      <trkpt lat="44.7188" lon="5.43786">
        <ele>637.49</ele>
        <time>2017-05-28T12:52:12Z</time>
      </trkpt>
      <trkpt lat="44.71879" lon="5.43779">
        <ele>636.53</ele>
        <time>2017-05-28T12:52:17Z</time>
      </trkpt>
      <trkpt lat="44.71879" lon="5.43775">
        <ele>636.53</ele>
        <time>2017-05-28T12:52:19Z</time>
      </trkpt>
      <trkpt lat="44.71872" lon="5.43747">
        <ele>633.17</ele>
        <time>2017-05-28T12:52:33Z</time>
      </trkpt>
      <trkpt lat="44.71872" lon="5.43745">
        <ele>633.17</ele>
        <time>2017-05-28T12:52:34Z</time>
      </trkpt>
      <trkpt lat="44.71862" lon="5.43731">
        <ele>631.24</ele>
        <time>2017-05-28T12:52:45Z</time>
      </trkpt>
      <trkpt lat="44.71857" lon="5.43729">
        <ele>631.24</ele>
        <time>2017-05-28T12:52:49Z</time>
      </trkpt>
      <trkpt lat="44.71835" lon="5.43726">
        <ele>629.32</ele>
        <time>2017-05-28T12:53:07Z</time>
      </trkpt>
      <trkpt lat="44.71817" lon="5.43724">
        <ele>628.84</ele>
        <time>2017-05-28T12:53:21Z</time>
      </trkpt>
      <trkpt lat="44.71801" lon="5.43727">
        <ele>628.36</ele>
        <time>2017-05-28T12:53:34Z</time>
      </trkpt>
      <trkpt lat="44.71787" lon="5.43725">
        <ele>625.47</ele>
        <time>2017-05-28T12:53:48Z</time>
      </trkpt>
      <trkpt lat="44.71767" lon="5.43721">
        <ele>622.11</ele>
        <time>2017-05-28T12:54:03Z</time>
      </trkpt>
      <trkpt lat="44.71766" lon="5.4372">
        <ele>622.11</ele>
        <time>2017-05-28T12:54:04Z</time>
      </trkpt>
      <trkpt lat="44.71754" lon="5.43713">
        <ele>620.19</ele>
        <time>2017-05-28T12:54:13Z</time>
      </trkpt>
      <trkpt lat="44.71738" lon="5.43697">
        <ele>617.3</ele>
        <time>2017-05-28T12:54:27Z</time>
      </trkpt>
      <trkpt lat="44.71727" lon="5.43685">
        <ele>615.86</ele>
        <time>2017-05-28T12:54:41Z</time>
      </trkpt>
      <trkpt lat="44.71724" lon="5.43681">
        <ele>615.38</ele>
        <time>2017-05-28T12:54:55Z</time>
      </trkpt>
      <trkpt lat="44.71716" lon="5.43667">
        <ele>612.98</ele>
        <time>2017-05-28T12:55:09Z</time>
      </trkpt>
      <trkpt lat="44.71715" lon="5.43664">
        <ele>611.54</ele>
        <time>2017-05-28T12:55:11Z</time>
      </trkpt>
      <trkpt lat="44.71714" lon="5.43663">
        <ele>612.02</ele>
        <time>2017-05-28T12:55:12Z</time>
      </trkpt>
      <trkpt lat="44.71709" lon="5.43632">
        <ele>608.65</ele>
        <time>2017-05-28T12:55:28Z</time>
      </trkpt>
      <trkpt lat="44.71713" lon="5.43608">
        <ele>606.73</ele>
        <time>2017-05-28T12:55:42Z</time>
      </trkpt>
      <trkpt lat="44.71712" lon="5.43596">
        <ele>606.73</ele>
        <time>2017-05-28T12:55:49Z</time>
      </trkpt>
      <trkpt lat="44.71699" lon="5.43575">
        <ele>607.69</ele>
        <time>2017-05-28T12:56:06Z</time>
      </trkpt>
      <trkpt lat="44.71681" lon="5.43567">
        <ele>606.25</ele>
        <time>2017-05-28T12:56:20Z</time>
      </trkpt>
      <trkpt lat="44.71679" lon="5.43566">
        <ele>606.25</ele>
        <time>2017-05-28T12:56:22Z</time>
      </trkpt>
      <trkpt lat="44.71668" lon="5.43541">
        <ele>605.29</ele>
        <time>2017-05-28T12:56:39Z</time>
      </trkpt>
      <trkpt lat="44.71658" lon="5.43515">
        <ele>603.36</ele>
        <time>2017-05-28T12:56:55Z</time>
      </trkpt>
      <trkpt lat="44.71658" lon="5.43513">
        <ele>602.88</ele>
        <time>2017-05-28T12:56:58Z</time>
      </trkpt>
      <trkpt lat="44.71654" lon="5.4349">
        <ele>602.88</ele>
        <time>2017-05-28T12:57:12Z</time>
      </trkpt>
      <trkpt lat="44.71651" lon="5.4347">
        <ele>602.88</ele>
        <time>2017-05-28T12:57:26Z</time>
      </trkpt>
      <trkpt lat="44.7165" lon="5.43464">
        <ele>602.88</ele>
        <time>2017-05-28T12:57:30Z</time>
      </trkpt>
      <trkpt lat="44.7165" lon="5.43461">
        <ele>601.92</ele>
        <time>2017-05-28T12:57:32Z</time>
      </trkpt>
      <trkpt lat="44.71643" lon="5.43434">
        <ele>600.96</ele>
        <time>2017-05-28T12:57:48Z</time>
      </trkpt>
      <trkpt lat="44.7164" lon="5.43412">
        <ele>599.52</ele>
        <time>2017-05-28T12:58:01Z</time>
      </trkpt>
      <trkpt lat="44.71635" lon="5.43409">
        <ele>599.04</ele>
        <time>2017-05-28T12:58:05Z</time>
      </trkpt>
      <trkpt lat="44.71627" lon="5.43406">
        <ele>598.08</ele>
        <time>2017-05-28T12:58:13Z</time>
      </trkpt>
      <trkpt lat="44.71623" lon="5.43406">
        <ele>597.6</ele>
        <time>2017-05-28T12:58:16Z</time>
      </trkpt>
      <trkpt lat="44.7162" lon="5.43405">
        <ele>597.6</ele>
        <time>2017-05-28T12:58:19Z</time>
      </trkpt>
      <trkpt lat="44.71607" lon="5.43374">
        <ele>596.15</ele>
        <time>2017-05-28T12:58:37Z</time>
      </trkpt>
      <trkpt lat="44.71603" lon="5.43346">
        <ele>596.15</ele>
        <time>2017-05-28T12:58:52Z</time>
      </trkpt>
      <trkpt lat="44.71597" lon="5.43321">
        <ele>595.67</ele>
        <time>2017-05-28T12:59:07Z</time>
      </trkpt>
      <trkpt lat="44.71592" lon="5.43289">
        <ele>594.71</ele>
        <time>2017-05-28T12:59:24Z</time>
      </trkpt>
      <trkpt lat="44.71582" lon="5.43264">
        <ele>593.27</ele>
        <time>2017-05-28T12:59:40Z</time>
      </trkpt>
      <trkpt lat="44.7156" lon="5.43254">
        <ele>591.83</ele>
        <time>2017-05-28T12:59:57Z</time>
      </trkpt>
      <trkpt lat="44.71538" lon="5.43255">
        <ele>588.95</ele>
        <time>2017-05-28T13:00:15Z</time>
      </trkpt>
      <trkpt lat="44.71513" lon="5.43268">
        <ele>587.02</ele>
        <time>2017-05-28T13:00:36Z</time>
      </trkpt>
      <trkpt lat="44.71495" lon="5.43279">
        <ele>583.66</ele>
        <time>2017-05-28T13:00:51Z</time>
      </trkpt>
      <trkpt lat="44.71469" lon="5.43287">
        <ele>581.25</ele>
        <time>2017-05-28T13:01:09Z</time>
      </trkpt>
      <trkpt lat="44.71444" lon="5.4328">
        <ele>579.81</ele>
        <time>2017-05-28T13:01:29Z</time>
      </trkpt>
      <trkpt lat="44.7142" lon="5.43267">
        <ele>577.89</ele>
        <time>2017-05-28T13:01:48Z</time>
      </trkpt>
      <trkpt lat="44.71402" lon="5.43255">
        <ele>575.97</ele>
        <time>2017-05-28T13:02:03Z</time>
      </trkpt>
      <trkpt lat="44.71384" lon="5.43247">
        <ele>575.01</ele>
        <time>2017-05-28T13:02:18Z</time>
      </trkpt>
      <trkpt lat="44.71364" lon="5.43236">
        <ele>573.56</ele>
        <time>2017-05-28T13:02:35Z</time>
      </trkpt>
      <trkpt lat="44.71357" lon="5.43229">
        <ele>572.6</ele>
        <time>2017-05-28T13:02:42Z</time>
      </trkpt>
      <trkpt lat="44.71352" lon="5.43217">
        <ele>572.12</ele>
        <time>2017-05-28T13:02:50Z</time>
      </trkpt>
      <trkpt lat="44.71338" lon="5.4319">
        <ele>570.68</ele>
        <time>2017-05-28T13:03:09Z</time>
      </trkpt>
      <trkpt lat="44.71329" lon="5.4317">
        <ele>570.2</ele>
        <time>2017-05-28T13:03:25Z</time>
      </trkpt>
      <trkpt lat="44.71324" lon="5.43154">
        <ele>569.24</ele>
        <time>2017-05-28T13:03:42Z</time>
      </trkpt>
      <trkpt lat="44.71324" lon="5.43154">
        <ele>569.24</ele>
        <time>2017-05-28T13:03:57Z</time>
      </trkpt>
      <trkpt lat="44.71324" lon="5.4315">
        <ele>569.24</ele>
        <time>2017-05-28T13:04:09Z</time>
      </trkpt>
      <trkpt lat="44.72076" lon="5.44252">
        <ele>687.7</ele>
      </trkpt>
      <trkpt lat="44.72076" lon="5.44252">
        <ele>687.7</ele>
      </trkpt>
    </trkseg>
  </trk>
</gpx>